createdAt,value
2023-03-15T00:00:59.927Z,45.15
2023-03-15T00:02:03.976Z,45.10
2023-03-15T00:03:07.650Z,45.13
2023-03-15T00:04:11.546Z,44.66
2023-03-15T00:05:15.355Z,44.96
2023-03-15T00:06:19.137Z,44.75
2023-03-15T00:07:22.971Z,44.41
2023-03-15T00:08:26.715Z,44.72
2023-03-15T00:09:30.397Z,44.05
2023-03-15T00:10:34.176Z,44.12
2023-03-15T00:11:37.915Z,44.25
2023-03-15T00:12:42.093Z,44.77
2023-03-15T00:13:46.040Z,44.39
2023-03-15T00:14:52.186Z,44.92
2023-03-15T00:15:59.519Z,44.61
2023-03-15T00:17:03.231Z,44.73
2023-03-15T00:18:07.018Z,44.73
2023-03-15T00:19:11.046Z,45.16
2023-03-15T00:20:15.538Z,44.56
2023-03-15T00:21:19.220Z,44.62
2023-03-15T00:22:22.929Z,44.16
2023-03-15T00:23:27.014Z,45.27
2023-03-15T00:24:30.716Z,44.25
2023-03-15T00:25:34.578Z,44.88
2023-03-15T00:26:38.402Z,44.22
2023-03-15T00:27:42.109Z,44.92
2023-03-15T00:28:46.219Z,45.00
2023-03-15T00:29:51.721Z,44.75
2023-03-15T00:31:05.562Z,44.32
2023-03-15T00:32:09.365Z,44.53
2023-03-15T00:33:13.712Z,44.34
2023-03-15T00:34:17.462Z,44.86
2023-03-15T00:35:21.602Z,44.77
2023-03-15T00:36:26.075Z,44.29
2023-03-15T00:37:30.291Z,44.47
2023-03-15T00:38:34.592Z,44.55
2023-03-15T00:39:38.388Z,44.28
2023-03-15T00:40:42.086Z,44.12
2023-03-15T00:41:45.775Z,44.03
2023-03-15T00:42:49.573Z,44.17
2023-03-15T00:43:53.690Z,44.36
2023-03-15T00:44:58.998Z,44.28
2023-03-15T00:46:03.017Z,44.41
2023-03-15T00:47:06.834Z,44.54
2023-03-15T00:48:10.718Z,44.20
2023-03-15T00:49:14.438Z,44.48
2023-03-15T00:50:18.189Z,44.21
2023-03-15T00:51:23.613Z,44.08
2023-03-15T00:52:27.430Z,43.70
2023-03-15T00:53:31.182Z,44.01
2023-03-15T00:54:34.933Z,43.89
2023-03-15T00:55:38.664Z,44.22
2023-03-15T00:56:42.588Z,44.00
2023-03-15T00:57:47.364Z,43.83
2023-03-15T00:58:51.692Z,43.93
2023-03-15T00:59:55.533Z,43.58
2023-03-15T01:01:00.977Z,43.88
2023-03-15T01:02:06.024Z,43.61
2023-03-15T01:03:09.825Z,43.89
2023-03-15T01:04:13.595Z,44.03
2023-03-15T01:05:17.296Z,43.97
2023-03-15T01:06:23.532Z,44.12
2023-03-15T01:07:27.356Z,44.18
2023-03-15T01:08:31.195Z,44.48
2023-03-15T01:09:34.905Z,44.27
2023-03-15T01:10:38.618Z,43.88
2023-03-15T01:11:42.346Z,44.42
2023-03-15T01:12:46.429Z,44.24
2023-03-15T01:13:50.159Z,43.79
2023-03-15T01:14:53.779Z,43.82
2023-03-15T01:16:00.917Z,44.52
2023-03-15T01:17:04.698Z,44.37
2023-03-15T01:18:08.514Z,43.82
2023-03-15T01:19:17.904Z,44.37
2023-03-15T01:20:21.670Z,44.23
2023-03-15T01:21:25.459Z,43.64
2023-03-15T01:22:29.193Z,44.08
2023-03-15T01:23:32.850Z,43.81
2023-03-15T01:24:36.545Z,43.84
2023-03-15T01:25:40.158Z,43.68
2023-03-15T01:26:43.848Z,44.81
2023-03-15T01:27:47.725Z,44.34
2023-03-15T01:28:52.649Z,44.04
2023-03-15T01:29:59.015Z,43.90
2023-03-15T01:31:04.710Z,43.52
2023-03-15T01:32:09.104Z,43.95
2023-03-15T01:33:12.950Z,44.36
2023-03-15T01:34:17.262Z,43.81
2023-03-15T01:35:21.058Z,43.63
2023-03-15T01:36:25.395Z,43.92
2023-03-15T01:37:29.200Z,43.43
2023-03-15T01:38:33.451Z,43.50
2023-03-15T01:39:37.158Z,43.45
2023-03-15T01:40:43.023Z,42.79
2023-03-15T01:41:46.875Z,42.78
2023-03-15T01:43:06.432Z,42.55
2023-03-15T01:44:14.651Z,42.64
2023-03-15T01:45:50.783Z,43.03
2023-03-15T01:46:56.105Z,43.43
2023-03-15T01:48:00.257Z,42.82
2023-03-15T01:49:07.922Z,42.46
2023-03-15T01:50:13.109Z,43.18
2023-03-15T01:51:21.707Z,43.08
2023-03-15T01:52:27.734Z,42.44
2023-03-15T01:53:33.472Z,43.05
2023-03-15T01:54:42.585Z,42.00
2023-03-15T01:55:46.277Z,41.62
2023-03-15T01:56:53.513Z,42.30
2023-03-15T01:57:59.529Z,42.43
2023-03-15T01:59:06.555Z,42.04
2023-03-15T02:00:13.426Z,41.61
2023-03-15T02:01:18.019Z,41.76
2023-03-15T02:02:25.893Z,41.61
2023-03-15T02:03:34.891Z,40.83
2023-03-15T02:04:43.573Z,40.89
2023-03-15T02:05:50.139Z,40.62
2023-03-15T02:06:58.036Z,40.37
2023-03-15T02:08:02.550Z,40.36
2023-03-15T02:09:10.442Z,40.58
2023-03-15T20:01:45.520Z,48.48
2023-03-15T20:02:49.667Z,48.37
2023-03-15T20:03:53.528Z,47.46
2023-03-15T20:04:57.175Z,47.73
2023-03-15T20:06:05.685Z,47.63
2023-03-15T20:07:09.351Z,48.14
2023-03-15T20:08:13.305Z,47.51
2023-03-15T20:09:17.007Z,47.56
2023-03-15T20:10:21.384Z,48.55
2023-03-15T20:11:25.375Z,47.38
2023-03-15T20:12:29.541Z,47.87
2023-03-15T20:13:33.834Z,47.37
2023-03-15T20:14:37.595Z,47.11
2023-03-15T20:15:41.446Z,47.46
2023-03-15T20:16:47.584Z,47.65
2023-03-15T20:17:51.382Z,47.96
2023-03-15T20:18:55.149Z,46.93
2023-03-15T20:19:58.830Z,47.60
2023-03-15T20:21:02.491Z,48.23
2023-03-15T20:22:06.214Z,48.32
2023-03-15T20:23:10.051Z,47.52
2023-03-15T20:24:13.944Z,48.26
2023-03-15T20:25:19.510Z,48.14
2023-03-15T20:26:23.382Z,47.95
2023-03-15T20:27:34.117Z,48.77
